San Jose, CA

9:31 AM PDT on August 30, 2014 (GMT -0700)
North San Jose / 680 & Hostetter | Change Station
CLOSE
Current Station
Personal Weather Station
Location: San Jose, CA
Elevation: 85 ft
Nearby Weather Stations

Elev 85 ft 37.39 °N, 121.88 °W | Updated 40 seconds ago

Mostly Cloudy
Mostly Cloudy
73.3 °F
Feels Like 76 °F
N
0.0
Wind Variable Wind from SSE
Gusts 0.0 mph

Today
High -- | Low -- °F
--% Chance of Precip.
Yesterday
High -- | Low -- °F
Precip. -- in
6:36 AM 7:39 PM
Waxing Crescent, 23% visible
Pressure 29.92 in
Visibility 10.0 miles
Clouds Scattered Clouds 20000 ft
Mostly Cloudy 25000 ft
Heat Index 76 °F
Dew Point 62 °F
Humidity 67%
Rainfall 0.00 in
Snow Depth Not available.
UV 1 out of 12
Pollen 7.70 out of 12
Ozone Good
PM2.5 Good
Flu Activity Not available.
METAR KSJC 301553Z 00000KT 10SM SCT200 BKN250 19/15 A2992 RMK AO2 SLP130 T01890150

More Conditions Fewer Conditions

Pressure 29.92 in
Visibility 10.0 miles
Clouds Scattered Clouds 20000 ft
Mostly Cloudy 25000 ft
Heat Index 76 °F
Dew Point 62 °F
Humidity 67%
Rainfall 0.00 in
Snow Depth Not available.
UV 1 out of 12
Pollen 7.70 out of 12
Ozone Good
PM2.5 Good
Flu Activity Not available.
METAR KSJC 301553Z 00000KT 10SM SCT200 BKN250 19/15 A2992 RMK AO2 SLP130 T01890150

More Conditions Fewer Conditions

10-Day Weather Forecast

Almanac

Astronomy

Aug. 30, 2014 Rise Set
Actual Time 6:36 AM PDT 7:39 PM PDT
Civil Twilight 6:09 AM PDT 8:05 PM PDT
Nautical Twilight 5:37 AM PDT 8:37 PM PDT
Astronomical Twilight 5:04 AM PDT 9:10 PM PDT
Moon 11:22 AM PDT 10:24 PM PDT
Length of Visible Light 13h 56m
Length of Day
13h 02m
Tomorrow will be 2m 17s shorter.
Waxing Crescent, 23% of the Moon is Illuminated
Today
Waxing Crescent
Sep 2
First Quarter
Sep 8
Full
Sep 15
Last Quarter
Sep 24
New

Today's Extremes

State Highs State Lows

Community

WunderPhotos

Upload Photos

1,748,557 photos uploaded!

WunderBlogs® & News

Nearby

Air Quality

  Air Quality AQ Index Pollutant
Yesterday Good
OZONE
Yesterday Good
PM2.5
Current Good
PM2.5
Current Good
OZONE
Saturday Good
OZONE
Sunday Good
OZONE
Monday Good
OZONE
Tuesday Good
OZONE
Wednesday Good
OZONE

Snow Depth

Station Depth Elevation
Blue Lakes 0 in 8000 ft
Forestdale Creek 0 in 8029 ft
Echo Peak 0 in 7800 ft
Hagan's Meadow 0 in 8000 ft
Summit Meadow 0 in 9122 ft

Earthquake Activity

City Distance Mag. Time & Date
Ridgemark, California 57 miles 3.4 4:32 PM PDT
2014-08-29
The Geysers, California 111 miles 2.7 2:53 PM PDT
2014-08-29
Ridgemark, California 57 miles 3.0 2:44 PM PDT
2014-08-29
Minimum magnitude displayed is 2.5.

Coastal Water Temperatures

Place Temperature
No Stations Reporting

Nearby Weather Stations